Port Hedland, Australia

12:15 AM AWST on August 22, 2017 (GMT +0800)
Port Hedland International

Weather History for YPPD - December, 2012

Change the Weather History Date:

Sunday, December 23, 2012

  Actual Average Record
Temperature  
Mean Temperature 92 °F -  
Max Temperature 102 °F 97 °F 107 °F (2005)
Min Temperature 81 °F 77 °F 75 °F (2006)
Cooling Degree Days 26    
Growing Degree Days 42 (Base 50)    
Moisture  
Dew Point 76 °F    
Average Humidity 64    
Maximum Humidity 89    
Minimum Humidity 29    
Precipitation  
Precipitation 0.00 in 0.07 in - ()
Sea Level Pressure  
Sea Level Pressure 29.66 in    
Wind  
Wind Speed 11 mph ()    
Max Wind Speed 23 mph    
Max Gust Speed 24 mph    
Visibility 7.7 miles    
Events      
Averages and records for this station are not official NWS values.
T = Trace of Precipitation, MM = Missing Value Source: Averaged Metar Reports

Daily Weather History Graph

Daily Weather History Graph

Search for Another Location

Airport or City:

Trip Planner

Search our weather history database for the weather conditions in past years. The results will help you decide how hot, cold, wet, or windy it might be!

Date:

Astronomy

Dec. 23, 2012 Rise Set
Actual Time 5:23 AM AWST 6:45 PM AWST
Civil Twilight 4:58 AM AWST 7:10 PM AWST
Nautical Twilight 4:29 AM AWST 7:39 PM AWST
Astronomical Twilight 3:59 AM AWST 8:10 PM AWST
Moon 2:33 PM AWST (12/23) 1:24 AM AWST (12/23)
Length of Visible Light 14h 11m
Length of Day
13h 22m
Waxing Gibbous, 77% of the Moon is Illuminated
Dec 23
Waxing Gibbous
Dec 28
Full
Jan 5
Last Quarter
Jan 12
New
Jan 19
First Quarter

Hourly Weather History & Observations

Time (AWST) Temp. Heat Index Dew Point Humidity Pressure Visibility Wind Dir Wind Speed Gust Speed Precip Events Conditions
12:00 AM 85 °F - 80 °F 81% 29.66 in - West 9.2 mph - -  
12:00 AM 86.0 °F 101.9 °F 80.6 °F 84% 29.65 in 6.2 mi West 9.2 mph - N/A   Unknown
12:30 AM 84.2 °F 98.3 °F 80.6 °F 89% 29.65 in - West 10.4 mph - N/A   Unknown
1:00 AM 84.2 °F 98.3 °F 80.6 °F 89% 29.65 in - West 9.2 mph - N/A   Unknown
1:30 AM 84.2 °F 98.3 °F 80.6 °F 89% 29.62 in - West 8.1 mph - N/A   Unknown
2:00 AM 83 °F - 79 °F 86% 29.64 in - West 6.9 mph - -  
2:00 AM 82.4 °F 92.4 °F 78.8 °F 89% 29.62 in - West 6.9 mph - N/A   Unknown
2:30 AM 82.4 °F 92.4 °F 78.8 °F 89% 29.62 in - West 4.6 mph - N/A   Unknown
3:00 AM 82 °F - 79 °F 89% 29.64 in - WNW 6.9 mph - -  
3:00 AM 82.4 °F 92.4 °F 78.8 °F 89% 29.62 in - WNW 6.9 mph - N/A   Unknown
3:30 AM 82.4 °F 92.4 °F 78.8 °F 89% 29.65 in - NW 4.6 mph - N/A   Unknown
4:00 AM 82.4 °F 92.4 °F 78.8 °F 89% 29.65 in - NW 4.6 mph - N/A   Unknown
4:30 AM 82.4 °F 92.4 °F 78.8 °F 89% 29.65 in 6.2 mi NW 5.8 mph - N/A   Unknown
5:00 AM 82 °F - 79 °F 87% 29.67 in - NW 8.1 mph - -  
5:00 AM 82.4 °F 92.4 °F 78.8 °F 89% 29.65 in - NW 8.1 mph - N/A   Unknown
5:30 AM 82.4 °F 92.4 °F 78.8 °F 89% 29.68 in - NW 6.9 mph - N/A   Unknown
6:00 AM 84 °F - 80 °F 85% 29.68 in 12 mi NNW 9.2 mph - -   Haze
6:00 AM 84.2 °F 98.3 °F 80.6 °F 89% 29.68 in - NNW 9.2 mph - N/A   Clear
6:30 AM 86.0 °F 101.9 °F 80.6 °F 84% 29.68 in - NW 10.4 mph - N/A   Clear
7:00 AM 87.8 °F 102.5 °F 78.8 °F 75% 29.68 in - WNW 10.4 mph - N/A   Clear
7:30 AM 91.4 °F 107.2 °F 78.8 °F 66% 29.68 in - West 10.4 mph - N/A   Clear
8:00 AM 94 °F - 75 °F 46% 29.71 in - West 10.4 mph - -  
8:00 AM 93.2 °F 105.0 °F 75.2 °F 56% 29.71 in - West 10.4 mph - N/A   Clear
8:30 AM 95.0 °F 104.5 °F 73.4 °F 49% 29.71 in - WNW 9.2 mph - N/A   Clear
9:00 AM 98 °F - 72 °F 34% 29.70 in 16 mi WNW 10.4 mph - -   Partly Cloudy
9:00 AM 98.6 °F 107.7 °F 71.6 °F 42% 29.68 in - WNW 10.4 mph - N/A   Clear
9:30 AM 100.4 °F 109.3 °F 71.6 °F 39% 29.68 in - WNW 11.5 mph - N/A   Clear
10:00 AM 100.4 °F 104.9 °F 66.2 °F 33% 29.68 in - NW 15.0 mph - N/A   Clear
10:30 AM 102.2 °F 110.0 °F 69.8 °F 35% 29.68 in - NNW 16.1 mph - N/A   Clear
11:00 AM 100 °F - 70 °F 29% 29.68 in - NW 17.3 mph - -  
11:00 AM 100.4 °F 107.8 °F 69.8 °F 37% 29.65 in - NW 17.3 mph - N/A   Clear
11:30 AM 100.4 °F 109.3 °F 71.6 °F 39% 29.65 in - NNW 19.6 mph - N/A   Clear
12:00 PM 99 °F - 74 °F 36% 29.65 in 19 mi NNW 18.4 mph - -   Partly Cloudy
12:00 PM 98.6 °F 109.2 °F 73.4 °F 44% 29.65 in - NNW 18.4 mph - N/A   Clear
12:30 PM 96.8 °F 105.1 °F 71.6 °F 44% 29.62 in - NW 20.7 mph - N/A   Clear
1:00 PM 100.4 °F 113.6 °F 75.2 °F 44% 29.62 in 6.2 mi NW 19.6 mph - N/A   Partly Cloudy
1:30 PM 98.6 °F 111.7 °F 75.2 °F 47% 29.62 in - NW 19.6 mph - N/A   Clear
2:00 PM 98 °F - 72 °F 34% 29.62 in - NW 21.9 mph - -  
2:00 PM 98.6 °F 107.7 °F 71.6 °F 42% 29.62 in - NW 21.9 mph - N/A   Clear
2:30 PM 98.6 °F 111.7 °F 75.2 °F 47% 29.59 in - NW 21.9 mph - N/A   Clear
3:00 PM 97 °F - 74 °F 39% 29.60 in 19 mi NW 21.9 mph - -   Scattered Clouds
3:00 PM 96.8 °F 109.6 °F 75.2 °F 50% 29.59 in 6.2 mi NW 21.9 mph - N/A   Partly Cloudy
3:30 PM 98.6 °F 109.2 °F 73.4 °F 44% 29.59 in 6.2 mi NW 20.7 mph - N/A   Unknown
4:00 PM 91.4 °F 105.1 °F 77.0 °F 63% 29.59 in 6.2 mi NNW 20.7 mph - N/A   Unknown
4:30 PM 93.2 °F 107.2 °F 77.0 °F 59% 29.59 in 6.2 mi NW 19.6 mph - N/A   Unknown
5:00 PM 92 °F - 75 °F 49% 29.60 in - NW 18.4 mph - -  
5:00 PM 91.4 °F 102.5 °F 75.2 °F 59% 29.59 in 6.2 mi NW 18.4 mph - N/A   Unknown
5:30 PM 91.4 °F 105.1 °F 77.0 °F 63% 29.59 in 6.2 mi NW 19.6 mph - N/A   Unknown
6:00 PM 90 °F - 76 °F 56% 29.62 in - NW 18.4 mph - -  
6:00 PM 89.6 °F 102.2 °F 77.0 °F 66% 29.62 in 6.2 mi NW 18.4 mph - N/A   Unknown
6:30 PM 87.8 °F 99.7 °F 77.0 °F 70% 29.62 in 6.2 mi NW 17.3 mph - N/A   Unknown
7:00 PM 87.8 °F 97.6 °F 75.2 °F 66% 29.65 in 6.2 mi WNW 16.1 mph - N/A   Unknown
7:30 PM 87.8 °F 97.6 °F 75.2 °F 66% 29.65 in 6.2 mi WNW 13.8 mph - N/A   Unknown
8:00 PM 88 °F - 75 °F 58% 29.70 in - West 15.0 mph - -  
8:00 PM 87.8 °F 97.6 °F 75.2 °F 66% 29.68 in 6.2 mi West 15.0 mph - N/A   Unknown
8:30 PM 89.6 °F 98.2 °F 73.4 °F 59% 29.71 in 6.2 mi WSW 18.4 mph - N/A   Unknown
9:00 PM 88 °F - 74 °F 56% 29.71 in - West 10.4 mph - -  
9:00 PM 87.8 °F 97.6 °F 75.2 °F 66% 29.71 in 6.2 mi West 10.4 mph - N/A   Unknown
9:30 PM 87.8 °F 97.6 °F 75.2 °F 66% 29.71 in 6.2 mi West 10.4 mph - N/A   Unknown
10:00 PM 87.8 °F 97.6 °F 75.2 °F 66% 29.68 in 6.2 mi WNW 10.4 mph - N/A   Unknown
10:30 PM 86.0 °F 95.1 °F 75.2 °F 70% 29.68 in 6.2 mi NW 9.2 mph - N/A   Unknown
11:00 PM 87 °F - 78 °F 69% 29.70 in - NW 9.2 mph - -  
11:00 PM 87.8 °F 102.5 °F 78.8 °F 75% 29.68 in 6.2 mi NW 9.2 mph - N/A   Unknown
11:30 PM 87.8 °F 102.5 °F 78.8 °F 75% 29.74 in 6.2 mi NNW 8.1 mph 24.2 mph N/A   Scattered Clouds
11:33 PM 87.8 °F 102.5 °F 78.8 °F 75% 29.77 in 6.2 mi East 23.0 mph - N/A   Scattered Clouds
11:39 PM 87.8 °F 102.5 °F 78.8 °F 75% 29.74 in 6.2 mi NNE 15.0 mph - N/A   Scattered Clouds